createdAt,value
2019-04-07T00:00:01.712Z,99.90
2019-04-07T00:02:31.475Z,99.90
2019-04-07T00:05:10.949Z,99.90
2019-04-07T00:07:32.784Z,99.90
2019-04-07T00:10:02.854Z,99.90
2019-04-07T00:12:32.277Z,99.90
2019-04-07T00:15:01.599Z,99.90
2019-04-07T00:17:31.131Z,99.90
2019-04-07T00:20:00.652Z,99.90
2019-04-07T00:22:30.086Z,99.90
2019-04-07T00:24:59.555Z,99.90
2019-04-07T00:27:29.050Z,99.90
2019-04-07T00:29:58.478Z,99.90
2019-04-07T00:32:28.325Z,99.90
2019-04-07T00:34:57.802Z,99.90
2019-04-07T00:37:27.333Z,99.90
2019-04-07T00:39:56.840Z,99.90
2019-04-07T00:42:27.401Z,99.90
2019-04-07T00:44:57.058Z,99.90
2019-04-07T00:47:26.368Z,99.90
2019-04-07T00:49:55.926Z,99.90
2019-04-07T00:52:25.484Z,99.90
2019-04-07T00:54:55.493Z,99.90
2019-04-07T00:57:25.570Z,99.90
2019-04-07T00:59:55.141Z,99.90
2019-04-07T01:02:24.551Z,99.90
2019-04-07T01:04:53.944Z,99.90
2019-04-07T01:07:23.781Z,99.90
2019-04-07T01:09:53.244Z,99.90
2019-04-07T01:12:23.147Z,99.90
2019-04-07T01:14:53.359Z,99.90
2019-04-07T01:17:23.674Z,99.90
2019-04-07T01:19:53.555Z,99.90
2019-04-07T01:22:23.037Z,99.90
2019-04-07T01:24:52.654Z,99.90
2019-04-07T01:27:22.719Z,99.90
2019-04-07T01:29:52.164Z,99.90
2019-04-07T01:32:21.612Z,99.90
2019-04-07T01:34:51.523Z,99.90
2019-04-07T01:37:21.006Z,99.90
2019-04-07T01:39:53.745Z,99.90
2019-04-07T01:42:29.011Z,99.90
2019-04-07T01:45:16.846Z,99.90
2019-04-07T01:47:53.015Z,99.90
2019-04-07T01:50:48.176Z,99.90
2019-04-07T01:53:28.124Z,99.90
2019-04-07T01:56:09.281Z,99.90
2019-04-07T01:58:50.249Z,99.90
2019-04-07T02:01:42.765Z,99.90
2019-04-07T02:04:23.677Z,99.90
2019-04-07T02:07:37.505Z,99.90
2019-04-07T02:10:24.084Z,99.90
2019-04-07T02:13:11.108Z,99.90
2019-04-07T02:16:02.920Z,99.90
2019-04-07T02:18:51.347Z,99.90
2019-04-07T02:21:31.874Z,99.90
2019-04-07T02:24:26.768Z,99.90
2019-04-07T02:27:15.316Z,99.90
2019-04-07T02:30:03.982Z,99.90
2019-04-07T02:32:54.610Z,99.90
2019-04-07T02:35:46.401Z,99.90
2019-04-07T02:38:31.622Z,99.90
2019-04-07T02:41:36.073Z,99.90
2019-04-07T02:44:31.600Z,99.90
2019-04-07T02:47:20.052Z,99.90
2019-04-07T02:50:18.967Z,99.90
2019-04-07T02:53:22.686Z,99.90
2019-04-07T02:56:11.081Z,99.90
2019-04-07T02:58:58.238Z,99.90
2019-04-07T03:01:37.055Z,99.90
2019-04-07T03:04:29.207Z,99.90
2019-04-07T03:07:20.679Z,99.90
2019-04-07T03:10:07.770Z,99.90
2019-04-07T03:12:58.797Z,99.90
2019-04-07T03:15:53.097Z,99.90
2019-04-07T03:18:47.707Z,99.90
2019-04-07T03:21:36.258Z,99.90
2019-04-07T03:24:30.628Z,99.90
2019-04-07T03:27:18.279Z,99.90
2019-04-07T03:30:24.300Z,99.90
2019-04-07T03:33:22.647Z,99.90
2019-04-07T03:36:17.771Z,99.90
2019-04-07T03:39:19.143Z,99.90
2019-04-07T03:42:10.757Z,99.90
2019-04-07T03:44:49.047Z,99.90
2019-04-07T03:47:37.862Z,99.90
2019-04-07T03:50:21.864Z,99.90
2019-04-07T03:52:58.490Z,99.90
2019-04-07T03:55:36.724Z,99.90
2019-04-07T03:58:22.594Z,99.90
2019-04-07T04:01:29.626Z,99.90
2019-04-07T04:04:15.747Z,99.90
2019-04-07T04:07:17.820Z,99.90
2019-04-07T04:09:59.779Z,99.90
2019-04-07T04:12:47.154Z,99.90
2019-04-07T04:15:22.992Z,99.90
2019-04-07T04:17:53.795Z,99.90
2019-04-07T04:20:23.886Z,99.90
2019-04-07T04:22:53.579Z,99.90
2019-04-07T04:25:23.214Z,99.90
2019-04-07T04:27:52.926Z,99.90
2019-04-07T04:30:22.424Z,99.90
2019-04-07T04:32:52.222Z,99.90
2019-04-07T04:35:22.434Z,99.90
2019-04-07T04:37:56.413Z,99.90
2019-04-07T04:40:26.243Z,99.90
2019-04-07T04:42:55.715Z,99.90
2019-04-07T04:45:25.116Z,99.90
2019-04-07T04:47:54.569Z,99.90
2019-04-07T04:50:23.987Z,99.90
2019-04-07T04:52:54.402Z,99.90
2019-04-07T04:55:25.376Z,99.90
2019-04-07T04:57:54.995Z,99.90
2019-04-07T05:00:24.498Z,99.90
2019-04-07T05:02:54.059Z,99.90
2019-04-07T05:05:23.430Z,99.90
2019-04-07T05:07:59.282Z,99.90
2019-04-07T05:10:24.840Z,99.90
2019-04-07T05:12:55.009Z,99.90
2019-04-07T05:15:24.342Z,99.90
2019-04-07T05:17:54.805Z,99.90
2019-04-07T05:20:25.213Z,99.90
2019-04-07T05:22:54.721Z,99.90
2019-04-07T05:25:24.891Z,99.90
2019-04-07T05:27:54.658Z,99.90
2019-04-07T05:30:24.263Z,99.90
2019-04-07T05:32:54.487Z,99.90
2019-04-07T05:35:24.843Z,99.90
2019-04-07T05:38:02.120Z,99.90
2019-04-07T05:40:25.642Z,99.90
2019-04-07T05:42:58.730Z,99.90
2019-04-07T05:45:28.574Z,99.90
2019-04-07T05:47:58.029Z,99.90
2019-04-07T05:50:28.805Z,99.90
2019-04-07T05:52:58.793Z,99.90
2019-04-07T05:55:29.250Z,99.90
2019-04-07T05:57:59.591Z,99.90
2019-04-07T06:00:29.602Z,99.90
2019-04-07T06:03:01.382Z,99.90
2019-04-07T06:05:31.007Z,99.90
2019-04-07T06:08:06.276Z,99.90
2019-04-07T06:10:31.945Z,99.90
2019-04-07T06:13:01.554Z,99.90
2019-04-07T06:15:31.234Z,99.90
2019-04-07T06:18:01.526Z,99.90
2019-04-07T06:20:32.320Z,99.90
2019-04-07T06:23:02.387Z,99.90
2019-04-07T06:25:36.980Z,99.90
2019-04-07T06:28:03.355Z,99.90
2019-04-07T06:30:35.846Z,99.90
2019-04-07T06:33:06.945Z,99.90
2019-04-07T06:35:36.534Z,99.90
2019-04-07T06:38:07.905Z,99.90
2019-04-07T06:40:37.550Z,99.90
2019-04-07T06:43:07.452Z,99.90
2019-04-07T06:45:49.121Z,99.90
2019-04-07T06:48:18.817Z,99.90
2019-04-07T06:51:10.673Z,99.90
2019-04-07T06:54:20.991Z,99.90
2019-04-07T06:57:06.492Z,99.90
2019-04-07T06:59:49.057Z,99.90
2019-04-07T07:02:45.463Z,99.90
2019-04-07T07:05:33.403Z,99.90
2019-04-07T07:08:16.925Z,99.90
2019-04-07T07:10:53.252Z,99.90
2019-04-07T07:13:43.934Z,99.90
2019-04-07T07:16:41.324Z,99.90
2019-04-07T07:19:28.593Z,99.90
2019-04-07T07:22:16.065Z,99.90
2019-04-07T07:24:46.781Z,99.90
2019-04-07T07:27:16.370Z,99.90
2019-04-07T07:29:47.489Z,99.90
2019-04-07T07:32:17.957Z,99.90
2019-04-07T07:34:47.843Z,99.90
2019-04-07T07:37:18.379Z,99.90
2019-04-07T07:39:48.588Z,99.90
2019-04-07T07:42:23.293Z,99.90
2019-04-07T07:44:51.475Z,99.90
2019-04-07T07:47:22.597Z,99.90
2019-04-07T07:49:53.559Z,99.90
2019-04-07T07:52:23.321Z,99.90
2019-04-07T07:54:53.570Z,99.90
2019-04-07T07:57:24.067Z,99.90
2019-04-07T07:59:56.412Z,99.90
2019-04-07T08:02:28.463Z,99.90
2019-04-07T08:04:59.288Z,99.90
2019-04-07T08:07:28.881Z,99.90
2019-04-07T08:09:58.656Z,99.90
2019-04-07T08:12:28.155Z,99.90
2019-04-07T08:14:58.655Z,99.90
2019-04-07T08:17:31.618Z,99.90
2019-04-07T08:19:59.965Z,99.90
2019-04-07T08:22:33.817Z,99.90
2019-04-07T08:25:02.318Z,99.90
2019-04-07T08:27:33.022Z,99.90
2019-04-07T08:30:02.753Z,99.90
2019-04-07T08:32:33.383Z,99.90
2019-04-07T08:35:05.564Z,99.90
2019-04-07T08:37:35.244Z,99.90
2019-04-07T08:40:07.618Z,99.90
2019-04-07T08:42:38.029Z,99.90
2019-04-07T08:45:09.774Z,99.90
2019-04-07T08:47:40.189Z,99.90
2019-04-07T08:50:10.511Z,99.90
2019-04-07T08:52:43.037Z,99.90
2019-04-07T08:55:13.945Z,99.90
2019-04-07T08:57:44.595Z,99.90
2019-04-07T09:00:20.280Z,99.90
2019-04-07T09:03:01.086Z,99.90
2019-04-07T09:05:26.869Z,99.90
2019-04-07T09:07:54.058Z,99.90
2019-04-07T09:10:32.479Z,99.90
2019-04-07T09:13:03.044Z,99.90
2019-04-07T09:15:43.590Z,99.90
2019-04-07T09:18:20.480Z,99.90
2019-04-07T09:21:13.395Z,99.90
2019-04-07T09:23:55.178Z,99.90
2019-04-07T09:26:40.564Z,99.90
2019-04-07T09:29:28.204Z,99.90
2019-04-07T09:32:12.680Z,99.90
2019-04-07T09:35:00.640Z,99.90
2019-04-07T09:37:55.990Z,99.90
2019-04-07T09:40:33.999Z,99.90
2019-04-07T09:43:41.128Z,99.90
2019-04-07T09:46:27.782Z,99.90
2019-04-07T09:49:22.387Z,99.90
2019-04-07T09:52:01.038Z,99.90
2019-04-07T09:54:51.683Z,99.90
2019-04-07T09:57:31.449Z,99.90
2019-04-07T10:00:08.654Z,99.90
2019-04-07T10:03:07.795Z,99.90
2019-04-07T10:06:05.387Z,99.90
2019-04-07T10:08:47.759Z,99.90
2019-04-07T10:11:46.181Z,99.90
2019-04-07T10:14:35.072Z,99.90
2019-04-07T10:17:24.252Z,99.90
2019-04-07T10:20:15.728Z,99.90
2019-04-07T10:23:10.819Z,99.90
2019-04-07T10:26:08.407Z,99.90
2019-04-07T10:28:46.173Z,99.90
2019-04-07T10:31:28.227Z,99.90
2019-04-07T10:34:26.031Z,99.90
2019-04-07T10:37:10.639Z,99.90
2019-04-07T10:39:52.683Z,99.90
2019-04-07T10:42:43.882Z,99.90
2019-04-07T10:45:29.665Z,99.90
2019-04-07T10:48:24.448Z,99.90
2019-04-07T10:51:11.036Z,99.90
2019-04-07T10:53:59.409Z,99.90
2019-04-07T10:56:42.878Z,99.90
2019-04-07T10:59:37.471Z,99.90
2019-04-07T11:02:24.942Z,99.90
2019-04-07T11:05:16.437Z,99.90
2019-04-07T11:08:03.729Z,99.90
2019-04-07T11:10:48.960Z,99.90
2019-04-07T11:13:46.961Z,99.90
2019-04-07T11:16:26.304Z,99.90
2019-04-07T11:19:24.191Z,99.90
2019-04-07T11:22:21.969Z,99.90
2019-04-07T11:25:10.826Z,99.90
2019-04-07T11:28:12.237Z,99.90
2019-04-07T11:31:03.855Z,99.90
2019-04-07T11:33:42.516Z,99.90
2019-04-07T11:36:20.358Z,99.90
2019-04-07T11:39:11.128Z,99.90
2019-04-07T11:42:19.626Z,99.90
2019-04-07T11:45:14.870Z,99.90
2019-04-07T11:47:52.607Z,99.90
2019-04-07T11:50:54.001Z,99.90
2019-04-07T11:53:29.476Z,99.90
2019-04-07T11:56:14.019Z,99.90
2019-04-07T11:59:02.651Z,99.80
2019-04-07T12:01:58.541Z,99.90
2019-04-07T12:04:53.434Z,99.80
2019-04-07T12:07:40.250Z,99.90
2019-04-07T12:10:35.255Z,99.30
2019-04-07T12:13:22.491Z,98.40
2019-04-07T12:16:14.406Z,99.40
2019-04-07T12:19:12.685Z,96.80
2019-04-07T12:21:54.660Z,95.90
2019-04-07T12:24:49.127Z,95.60
2019-04-07T12:27:36.242Z,93.30
2019-04-07T12:30:23.673Z,94.10
2019-04-07T12:33:07.915Z,92.30
2019-04-07T12:35:56.334Z,91.20
2019-04-07T12:38:41.265Z,89.40
2019-04-07T12:41:31.787Z,90.70
2019-04-07T12:44:10.431Z,86.30
2019-04-07T12:46:59.002Z,89.70
2019-04-07T12:50:03.018Z,82.50
2019-04-07T12:53:01.222Z,85.70
2019-04-07T12:55:53.470Z,79.10
2019-04-07T12:58:35.708Z,76.10
2019-04-07T13:01:17.694Z,78.40
2019-04-07T13:04:04.529Z,81.80
2019-04-07T13:06:55.602Z,74.30
2019-04-07T13:09:38.859Z,71.40
2019-04-07T13:12:34.182Z,74.50
2019-04-07T13:15:23.466Z,68.40
2019-04-07T13:18:07.004Z,65.10
2019-04-07T13:20:50.296Z,61.90
2019-04-07T13:23:26.588Z,63.00
2019-04-07T13:26:15.391Z,59.60
2019-04-07T13:28:54.466Z,58.60
2019-04-07T13:31:39.524Z,56.20
2019-04-07T13:34:15.721Z,56.60
2019-04-07T13:37:08.079Z,52.10
2019-04-07T13:39:55.588Z,51.60
2019-04-07T13:42:58.850Z,52.70
2019-04-07T13:45:58.913Z,52.60
2019-04-07T13:48:49.679Z,51.90
2019-04-07T13:51:28.915Z,50.20
2019-04-07T13:54:32.988Z,48.70
2019-04-07T13:57:23.858Z,50.20
2019-04-07T14:00:15.968Z,47.80
2019-04-07T14:02:55.994Z,47.30
2019-04-07T14:06:03.361Z,47.50
2019-04-07T14:09:04.314Z,47.00
2019-04-07T14:12:04.564Z,47.50
2019-04-07T14:14:45.871Z,46.60
2019-04-07T14:17:29.722Z,46.20
2019-04-07T14:20:18.117Z,44.40
2019-04-07T14:23:07.215Z,43.60
2019-04-07T14:25:49.086Z,44.00
2019-04-07T14:28:36.156Z,45.60
2019-04-07T14:31:33.706Z,43.50
2019-04-07T14:34:28.305Z,43.30
2019-04-07T14:37:32.926Z,43.00
2019-04-07T14:40:09.596Z,44.10
2019-04-07T14:43:01.162Z,42.10
2019-04-07T14:45:39.561Z,43.80
2019-04-07T14:48:22.450Z,44.10
2019-04-07T14:50:54.848Z,43.70
2019-04-07T14:53:35.491Z,42.00
2019-04-07T14:56:36.793Z,43.00
2019-04-07T14:59:38.361Z,43.60
2019-04-07T15:02:07.752Z,42.70
2019-04-07T15:05:02.973Z,42.90
2019-04-07T15:07:57.890Z,42.20
2019-04-07T15:10:28.901Z,42.70
2019-04-07T15:13:01.880Z,42.80
2019-04-07T15:15:32.396Z,42.50
2019-04-07T15:18:01.836Z,43.10
2019-04-07T15:20:32.264Z,42.90
2019-04-07T15:23:02.805Z,43.70
2019-04-07T15:25:32.333Z,41.70
2019-04-07T15:28:02.505Z,40.70
2019-04-07T15:30:31.982Z,39.60
2019-04-07T15:33:02.816Z,40.80
2019-04-07T15:35:33.099Z,42.30
2019-04-07T15:38:03.238Z,41.20
2019-04-07T15:40:35.039Z,40.60
2019-04-07T15:43:06.067Z,39.50
2019-04-07T15:45:35.448Z,40.60
2019-04-07T15:48:05.456Z,40.70
2019-04-07T15:50:35.471Z,40.80
2019-04-07T15:53:04.903Z,41.10
2019-04-07T15:55:45.826Z,39.30
2019-04-07T15:58:07.357Z,39.10
2019-04-07T16:00:37.622Z,40.20
2019-04-07T16:03:07.462Z,41.00
2019-04-07T16:05:42.232Z,42.00
2019-04-07T16:08:08.443Z,42.30
2019-04-07T16:10:39.131Z,43.50
2019-04-07T16:13:09.820Z,42.90
2019-04-07T16:15:42.576Z,42.00
2019-04-07T16:18:10.672Z,43.50
2019-04-07T16:20:41.416Z,42.60
2019-04-07T16:23:11.106Z,42.10
2019-04-07T16:25:41.800Z,42.80
2019-04-07T16:28:14.669Z,42.40
2019-04-07T16:30:42.835Z,42.80
2019-04-07T16:33:12.444Z,43.50
2019-04-07T16:35:43.866Z,41.90
2019-04-07T16:38:14.114Z,41.20
2019-04-07T16:40:43.577Z,42.60
2019-04-07T16:43:16.034Z,41.50
2019-04-07T16:45:45.836Z,42.70
2019-04-07T16:48:16.094Z,42.30
2019-04-07T16:50:46.393Z,43.90
2019-04-07T16:53:16.677Z,44.60
2019-04-07T16:55:48.931Z,45.00
2019-04-07T16:58:18.739Z,44.70
2019-04-07T17:00:48.118Z,45.50
2019-04-07T17:03:17.563Z,46.40
2019-04-07T17:05:46.924Z,47.00
2019-04-07T17:08:19.600Z,47.50
2019-04-07T17:10:48.594Z,47.50
2019-04-07T17:13:24.714Z,48.30
2019-04-07T17:15:51.657Z,48.70
2019-04-07T17:18:55.077Z,48.10
2019-04-07T17:21:23.122Z,48.80
2019-04-07T17:23:55.474Z,49.20
2019-04-07T17:26:24.196Z,49.50
2019-04-07T17:28:55.719Z,50.20
2019-04-07T17:31:27.512Z,50.40
2019-04-07T17:33:55.943Z,50.80
2019-04-07T17:36:25.380Z,50.60
2019-04-07T17:39:05.509Z,51.70
2019-04-07T17:41:33.863Z,51.70
2019-04-07T17:44:16.669Z,51.60
2019-04-07T17:46:58.792Z,52.50
2019-04-07T17:49:46.077Z,52.20
2019-04-07T17:52:27.870Z,52.90
2019-04-07T17:55:08.927Z,52.30
2019-04-07T17:58:07.882Z,53.80
2019-04-07T18:01:12.644Z,53.50
2019-04-07T18:03:59.398Z,54.50
2019-04-07T18:06:41.885Z,54.40
2019-04-07T18:09:30.952Z,54.10
2019-04-07T18:12:18.678Z,55.20
2019-04-07T18:15:09.246Z,56.10
2019-04-07T18:17:56.181Z,55.70
2019-04-07T18:20:40.540Z,57.30
2019-04-07T18:23:24.771Z,57.80
2019-04-07T18:26:06.224Z,57.90
2019-04-07T18:28:41.300Z,58.30
2019-04-07T18:31:36.258Z,58.90
2019-04-07T18:34:43.539Z,58.90
2019-04-07T18:37:29.063Z,60.10
2019-04-07T18:40:16.281Z,61.50
2019-04-07T18:43:13.876Z,61.40
2019-04-07T18:46:09.840Z,62.80
2019-04-07T18:49:01.144Z,64.40
2019-04-07T18:51:44.578Z,65.40
2019-04-07T18:54:32.436Z,66.30
2019-04-07T18:57:41.652Z,67.40
2019-04-07T19:00:35.323Z,68.20
2019-04-07T19:03:38.603Z,70.00
2019-04-07T19:06:30.120Z,70.90
2019-04-07T19:09:21.331Z,71.20
2019-04-07T19:12:20.071Z,72.60
2019-04-07T19:15:10.695Z,74.30
2019-04-07T19:17:58.913Z,75.40
2019-04-07T19:20:45.652Z,76.40
2019-04-07T19:23:28.328Z,77.30
2019-04-07T19:26:16.400Z,79.00
2019-04-07T19:28:50.284Z,80.10
2019-04-07T19:31:51.716Z,80.90
2019-04-07T19:34:45.118Z,82.30
2019-04-07T19:37:36.719Z,83.30
2019-04-07T19:40:27.710Z,81.50
2019-04-07T19:43:18.320Z,83.50
2019-04-07T19:46:09.987Z,84.80
2019-04-07T19:48:59.023Z,83.40
2019-04-07T19:52:08.372Z,85.80
2019-04-07T19:54:51.108Z,87.90
2019-04-07T19:57:43.552Z,89.60
2019-04-07T20:00:30.869Z,88.50
2019-04-07T20:03:22.149Z,89.00
2019-04-07T20:06:07.703Z,90.10
2019-04-07T20:09:11.171Z,91.00
2019-04-07T20:12:10.681Z,92.10
2019-04-07T20:15:06.566Z,91.90
2019-04-07T20:17:54.981Z,93.90
2019-04-07T20:21:01.273Z,93.50
2019-04-07T20:23:56.411Z,94.80
2019-04-07T20:26:35.609Z,95.90
2019-04-07T20:29:19.646Z,96.60
2019-04-07T20:32:13.914Z,97.10
2019-04-07T20:35:01.224Z,96.70
2019-04-07T20:38:01.998Z,96.90
2019-04-07T20:41:00.954Z,99.90
2019-04-07T20:43:55.782Z,99.10
2019-04-07T20:46:40.408Z,99.90
2019-04-07T20:49:42.211Z,99.90
2019-04-07T20:52:22.223Z,99.90
2019-04-07T20:55:09.791Z,99.90
2019-04-07T20:58:11.601Z,99.90
2019-04-07T21:01:02.453Z,99.90
2019-04-07T21:03:51.475Z,99.90
2019-04-07T21:06:30.125Z,99.90
2019-04-07T21:09:25.650Z,99.90
2019-04-07T21:12:13.300Z,99.90
2019-04-07T21:14:52.676Z,99.90
2019-04-07T21:17:43.828Z,99.90
2019-04-07T21:20:24.352Z,99.90
2019-04-07T21:23:19.877Z,99.90
2019-04-07T21:26:08.710Z,99.90
2019-04-07T21:28:53.284Z,99.90
2019-04-07T21:31:39.721Z,99.90
2019-04-07T21:34:38.484Z,99.90
2019-04-07T21:37:23.056Z,99.90
2019-04-07T21:40:10.548Z,99.90
2019-04-07T21:42:58.226Z,99.90
2019-04-07T21:45:55.775Z,99.90
2019-04-07T21:48:50.726Z,99.90
2019-04-07T21:51:46.619Z,99.90
2019-04-07T21:54:28.193Z,99.90
2019-04-07T21:57:28.941Z,99.90
2019-04-07T22:00:10.427Z,99.90
2019-04-07T22:02:57.091Z,99.90
2019-04-07T22:05:48.998Z,99.90
2019-04-07T22:08:37.444Z,99.90
2019-04-07T22:11:07.258Z,99.90
2019-04-07T22:13:36.946Z,99.90
2019-04-07T22:16:06.439Z,99.90
2019-04-07T22:18:37.524Z,99.90
2019-04-07T22:21:07.660Z,99.90
2019-04-07T22:23:38.009Z,99.90
2019-04-07T22:26:14.605Z,99.90
2019-04-07T22:28:39.397Z,99.90
2019-04-07T22:31:12.651Z,99.90
2019-04-07T22:33:42.457Z,99.90
2019-04-07T22:36:14.219Z,99.90
2019-04-07T22:38:44.154Z,99.90
2019-04-07T22:41:13.732Z,99.90
2019-04-07T22:43:43.471Z,99.90
2019-04-07T22:46:21.323Z,99.90
2019-04-07T22:48:44.532Z,99.90
2019-04-07T22:51:14.869Z,99.90
2019-04-07T22:53:44.365Z,99.90
2019-04-07T22:56:13.984Z,99.90
2019-04-07T22:58:44.418Z,99.90
2019-04-07T23:01:14.330Z,99.90
2019-04-07T23:03:44.120Z,99.90
2019-04-07T23:06:13.520Z,99.90
2019-04-07T23:08:43.262Z,99.90
2019-04-07T23:11:12.669Z,99.90
2019-04-07T23:13:42.064Z,99.90
2019-04-07T23:16:14.944Z,99.90
2019-04-07T23:18:42.543Z,99.90
2019-04-07T23:21:12.538Z,99.90
2019-04-07T23:23:42.031Z,99.90
2019-04-07T23:26:11.391Z,99.90
2019-04-07T23:28:40.773Z,99.90
2019-04-07T23:31:10.164Z,99.90
2019-04-07T23:33:39.538Z,99.90
2019-04-07T23:36:09.440Z,99.90
2019-04-07T23:38:39.123Z,99.90
2019-04-07T23:41:09.553Z,99.90
2019-04-07T23:43:39.691Z,99.90
2019-04-07T23:46:19.810Z,99.90
2019-04-07T23:48:40.457Z,99.90
2019-04-07T23:51:12.212Z,99.90
2019-04-07T23:54:09.471Z,99.90
2019-04-07T23:56:39.398Z,99.90
2019-04-07T23:59:10.210Z,99.90
